Atlas — SV6729 — position and weather

sailwx.info

Track history (hours):
 
Tides and Currents Weather Stations Pressure Air Temp Water Temp Dewpoint Dewpoint Depression Visibility Wind Speed Wind Dir Waves Ship Positions

Atlas

Last reported at 2016-Feb-10 23:32 UTC. Time now 2016-Feb-11 10:36 UTC.
Position N 37°57' E 023°37'.

Length 29 m; draft 5 m.

Type: Tug. MMSI: 239611000.

Date/timePositionNaut miles runAvg speedWind from/ knotsBaromVisibWave heightAir tempDewpointWater temp
2016-Feb-10 23:32N 37°57' E 023°37'0 0.0
2016-Feb-10 22:25N 37°57' E 023°37'0 0.0
2016-Feb-10 21:31N 37°57' E 023°37'0 0.0
2016-Feb-10 20:31N 37°57' E 023°37'0 0.0
2016-Feb-10 19:23N 37°57' E 023°37'0 0.0
2016-Feb-10 18:31N 37°57' E 023°37'0 0.0
2016-Feb-10 17:31N 37°57' E 023°37'1 0.6
2016-Feb-10 16:33N 37°57' E 023°36'1 0.5
2016-Feb-10 15:26N 37°57' E 023°37'0 0.0
2016-Feb-10 14:31N 37°57' E 023°37'0 0.0
2016-Feb-10 13:33N 37°57' E 023°37'0 0.0
2016-Feb-10 12:28N 37°57' E 023°37'1 0.1
2016-Feb-10 01:33N 37°57' E 023°36'4 4.2
2016-Feb-10 00:30N 38°01' E 023°36'0 0.0
2016-Feb-09 23:28N 38°01' E 023°36'1 1.5
2016-Feb-09 22:33N 38°02' E 023°34'1 1.1
2016-Feb-09 21:25N 38°02' E 023°32'0 0.0
2016-Feb-09 20:31N 38°02' E 023°32'0 0.0
2016-Feb-09 19:28N 38°02' E 023°32'0 0.0
2016-Feb-09 18:32N 38°02' E 023°32'0 0.0
2016-Feb-09 17:31N 38°02' E 023°32'0 0.0
2016-Feb-09 16:29N 38°02' E 023°32'4 3.8
2016-Feb-09 15:33N 37°59' E 023°33'3 3.1
2016-Feb-09 14:32N 37°57' E 023°37'1 1.3
2016-Feb-09 13:32N 37°57' E 023°35'1 1.2
2016-Feb-09 12:30N 37°57' E 023°37'1 0.0
2016-Feb-08 20:33N 37°57' E 023°36'1 0.6
2016-Feb-08 19:33N 37°57' E 023°37'0 0.0
2016-Feb-08 18:33N 37°57' E 023°37'0 0.0
2016-Feb-08 17:25N 37°57' E 023°37'1 0.6
2016-Feb-08 16:33N 37°57' E 023°36'0 0.4
2016-Feb-08 15:33N 37°57' E 023°36'0 0.4
2016-Feb-08 14:28N 37°57' E 023°36'0 0.5
2016-Feb-08 13:33N 37°57' E 023°37'0 0.0
2016-Feb-08 12:28N 37°57' E 023°37'1 0.0
2016-Feb-06 16:33N 37°57' E 023°36'5 4.5
2016-Feb-06 15:32N 38°02' E 023°36'0 0.2
2016-Feb-06 14:28N 38°01' E 023°35'0 0.1
2016-Feb-06 13:33N 38°01' E 023°35'2 2.3
2016-Feb-06 12:31N 38°02' E 023°32'0 0.0
2016-Feb-06 11:33N 38°02' E 023°32'0 0.3
2016-Feb-06 10:33N 38°02' E 023°33'0 0.3
2016-Feb-06 09:22N 38°02' E 023°32'0 0.1
2016-Feb-06 08:31N 38°02' E 023°32'1 0.8
2016-Feb-06 07:33N 38°01' E 023°33'4 4.1
2016-Feb-06 06:34N 37°57' E 023°35'2 1.6
2016-Feb-06 05:32N 37°57' E 023°37'0 0.0
2016-Feb-05 18:33N 37°57' E 023°37'0 0.0
2016-Feb-05 17:33N 37°57' E 023°37'0 0.0
2016-Feb-05 15:30N 37°57' E 023°37'0 0.0
2016-Feb-05 14:30N 37°57' E 023°37'0 0.0
2016-Feb-05 13:33N 37°57' E 023°37'0 0.3
2016-Feb-05 12:33N 37°57' E 023°36'0 0.1
2016-Feb-05 11:25N 37°57' E 023°36'0 0.5
2016-Feb-05 10:33N 37°57' E 023°36'0 0.4
2016-Feb-05 09:27N 37°57' E 023°36'1 0.6
2016-Feb-05 08:28N 37°57' E 023°36'1 0.0
2016-Feb-03 17:25N 37°57' E 023°37'0 0.0
2016-Feb-03 16:30N 37°57' E 023°37'0 0.0
2016-Feb-03 15:33N 37°57' E 023°37'0 0.0
2016-Feb-03 14:25N 37°57' E 023°37'0 0.0
2016-Feb-03 13:27N 37°57' E 023°37'0 0.0
2016-Feb-03 12:33N 37°57' E 023°37'0 0.2
2016-Feb-03 11:34N 37°57' E 023°36'2 2.3
2016-Feb-03 10:32N 37°57' E 023°33'0 0.2
2016-Feb-03 09:33N 37°57' E 023°33'1 0.9
2016-Feb-03 08:31N 37°57' E 023°34'0 0.0
2016-Feb-03 07:31N 37°57' E 023°34'2 1.7
2016-Feb-03 06:29N 37°57' E 023°37'0 0.0
2016-Feb-03 05:28N 37°57' E 023°37'0 0.0
2016-Feb-03 04:31N 37°57' E 023°37'0 0.0
2016-Feb-02 18:28N 37°57' E 023°37'0 0.0
2016-Feb-02 17:33N 37°57' E 023°37'0 0.0
2016-Feb-02 16:29N 37°57' E 023°37'0 0.4
2016-Feb-02 15:32N 37°57' E 023°36'0 0.3
2016-Feb-02 14:30N 37°57' E 023°37'0 0.0
2016-Feb-02 13:33N 37°57' E 023°37'0 0.0
2016-Feb-02 12:28N 37°57' E 023°37'0 0.0
2016-Feb-02 11:31N 37°57' E 023°37'3 2.9
2016-Feb-02 10:33N 37°57' E 023°33'0 0.1
2016-Feb-02 09:30N 37°57' E 023°33'3 3.0
2016-Feb-02 08:32N 37°57' E 023°37'0 0.0
2016-Feb-02 07:31N 37°57' E 023°37'0 0.0
2016-Feb-02 06:28N 37°57' E 023°37'1 1.1
2016-Feb-02 05:33N 37°56' E 023°36'1 0.9
2016-Feb-02 04:23N 37°57' E 023°37'1 0.0
2016-Feb-01 11:33N 37°57' E 023°36'1 0.9
2016-Feb-01 10:33N 37°57' E 023°35'1 1.4
2016-Feb-01 09:29N 37°57' E 023°37'2 1.9
2016-Feb-01 08:31N 37°58' E 023°34'0 0.5
2016-Feb-01 07:31N 37°57' E 023°35'0 0.0
2016-Feb-01 06:32N 37°57' E 023°35'0 0.0
2016-Feb-01 05:28N 37°57' E 023°35'  
Track history (hours):
 
Tides and Currents Weather Stations Pressure Air Temp Water Temp Dewpoint Dewpoint Depression Visibility Wind Speed Wind Dir Waves Ship Positions

Atlas

Last reported at 2016-Feb-10 23:32 UTC. Time now 2016-Feb-11 10:36 UTC.
Position N 37°57' E 023°37'.

Length 29 m; draft 5 m.

Type: Tug. MMSI: 239611000.

Date/timePositionNaut miles runAvg speedWind from/ knotsBaromVisibWave heightAir tempDewpointWater temp
2016-Feb-10 23:32N 37°57' E 023°37'0 0.0
2016-Feb-10 22:25N 37°57' E 023°37'0 0.0
2016-Feb-10 21:31N 37°57' E 023°37'0 0.0
2016-Feb-10 20:31N 37°57' E 023°37'0 0.0
2016-Feb-10 19:23N 37°57' E 023°37'0 0.0
2016-Feb-10 18:31N 37°57' E 023°37'0 0.0
2016-Feb-10 17:31N 37°57' E 023°37'1 0.6
2016-Feb-10 16:33N 37°57' E 023°36'1 0.5
2016-Feb-10 15:26N 37°57' E 023°37'0 0.0
2016-Feb-10 14:31N 37°57' E 023°37'0 0.0
2016-Feb-10 13:33N 37°57' E 023°37'0 0.0
2016-Feb-10 12:28N 37°57' E 023°37'1 0.1
2016-Feb-10 01:33N 37°57' E 023°36'4 4.2
2016-Feb-10 00:30N 38°01' E 023°36'0 0.0
2016-Feb-09 23:28N 38°01' E 023°36'1 1.5
2016-Feb-09 22:33N 38°02' E 023°34'1 1.1
2016-Feb-09 21:25N 38°02' E 023°32'0 0.0
2016-Feb-09 20:31N 38°02' E 023°32'0 0.0
2016-Feb-09 19:28N 38°02' E 023°32'0 0.0
2016-Feb-09 18:32N 38°02' E 023°32'0 0.0
2016-Feb-09 17:31N 38°02' E 023°32'0 0.0
2016-Feb-09 16:29N 38°02' E 023°32'4 3.8
2016-Feb-09 15:33N 37°59' E 023°33'3 3.1
2016-Feb-09 14:32N 37°57' E 023°37'1 1.3
2016-Feb-09 13:32N 37°57' E 023°35'1 1.2
2016-Feb-09 12:30N 37°57' E 023°37'1 0.0
2016-Feb-08 20:33N 37°57' E 023°36'1 0.6
2016-Feb-08 19:33N 37°57' E 023°37'0 0.0
2016-Feb-08 18:33N 37°57' E 023°37'0 0.0
2016-Feb-08 17:25N 37°57' E 023°37'1 0.6
2016-Feb-08 16:33N 37°57' E 023°36'0 0.4
2016-Feb-08 15:33N 37°57' E 023°36'0 0.4
2016-Feb-08 14:28N 37°57' E 023°36'0 0.5
2016-Feb-08 13:33N 37°57' E 023°37'0 0.0
2016-Feb-08 12:28N 37°57' E 023°37'1 0.0
2016-Feb-06 16:33N 37°57' E 023°36'5 4.5
2016-Feb-06 15:32N 38°02' E 023°36'0 0.2
2016-Feb-06 14:28N 38°01' E 023°35'0 0.1
2016-Feb-06 13:33N 38°01' E 023°35'2 2.3
2016-Feb-06 12:31N 38°02' E 023°32'0 0.0
2016-Feb-06 11:33N 38°02' E 023°32'0 0.3
2016-Feb-06 10:33N 38°02' E 023°33'0 0.3
2016-Feb-06 09:22N 38°02' E 023°32'0 0.1
2016-Feb-06 08:31N 38°02' E 023°32'1 0.8
2016-Feb-06 07:33N 38°01' E 023°33'4 4.1
2016-Feb-06 06:34N 37°57' E 023°35'2 1.6
2016-Feb-06 05:32N 37°57' E 023°37'0 0.0
2016-Feb-05 18:33N 37°57' E 023°37'0 0.0
2016-Feb-05 17:33N 37°57' E 023°37'0 0.0
2016-Feb-05 15:30N 37°57' E 023°37'0 0.0
2016-Feb-05 14:30N 37°57' E 023°37'0 0.0
2016-Feb-05 13:33N 37°57' E 023°37'0 0.3
2016-Feb-05 12:33N 37°57' E 023°36'0 0.1
2016-Feb-05 11:25N 37°57' E 023°36'0 0.5
2016-Feb-05 10:33N 37°57' E 023°36'0 0.4
2016-Feb-05 09:27N 37°57' E 023°36'1 0.6
2016-Feb-05 08:28N 37°57' E 023°36'1 0.0
2016-Feb-03 17:25N 37°57' E 023°37'0 0.0
2016-Feb-03 16:30N 37°57' E 023°37'0 0.0
2016-Feb-03 15:33N 37°57' E 023°37'0 0.0
2016-Feb-03 14:25N 37°57' E 023°37'0 0.0
2016-Feb-03 13:27N 37°57' E 023°37'0 0.0
2016-Feb-03 12:33N 37°57' E 023°37'0 0.2
2016-Feb-03 11:34N 37°57' E 023°36'2 2.3
2016-Feb-03 10:32N 37°57' E 023°33'0 0.2
2016-Feb-03 09:33N 37°57' E 023°33'1 0.9
2016-Feb-03 08:31N 37°57' E 023°34'0 0.0
2016-Feb-03 07:31N 37°57' E 023°34'2 1.7
2016-Feb-03 06:29N 37°57' E 023°37'0 0.0
2016-Feb-03 05:28N 37°57' E 023°37'0 0.0
2016-Feb-03 04:31N 37°57' E 023°37'0 0.0
2016-Feb-02 18:28N 37°57' E 023°37'0 0.0
2016-Feb-02 17:33N 37°57' E 023°37'0 0.0
2016-Feb-02 16:29N 37°57' E 023°37'0 0.4
2016-Feb-02 15:32N 37°57' E 023°36'0 0.3
2016-Feb-02 14:30N 37°57' E 023°37'0 0.0
2016-Feb-02 13:33N 37°57' E 023°37'0 0.0
2016-Feb-02 12:28N 37°57' E 023°37'0 0.0
2016-Feb-02 11:31N 37°57' E 023°37'3 2.9
2016-Feb-02 10:33N 37°57' E 023°33'0 0.1
2016-Feb-02 09:30N 37°57' E 023°33'3 3.0
2016-Feb-02 08:32N 37°57' E 023°37'0 0.0
2016-Feb-02 07:31N 37°57' E 023°37'0 0.0
2016-Feb-02 06:28N 37°57' E 023°37'1 1.1
2016-Feb-02 05:33N 37°56' E 023°36'1 0.9
2016-Feb-02 04:23N 37°57' E 023°37'1 0.0
2016-Feb-01 11:33N 37°57' E 023°36'1 0.9
2016-Feb-01 10:33N 37°57' E 023°35'1 1.4
2016-Feb-01 09:29N 37°57' E 023°37'2 1.9
2016-Feb-01 08:31N 37°58' E 023°34'0 0.5
2016-Feb-01 07:31N 37°57' E 023°35'0 0.0
2016-Feb-01 06:32N 37°57' E 023°35'0 0.0
2016-Feb-01 05:28N 37°57' E 023°35'  

Dump ship's entire track history